Share

Kalgoorlie-Boulder, Western Australia

12:56 AM WST am 24. April 2014 (GMT +0800)
Kalgoorlie-Boulder (YPKG) Höhe 1204 ft | 30.78 °S, 121.45 °E | Change Station

Current weather conditions updated 26 minutes ago

Clear
Heiter
66 °F
gefühlte 66 °F
N
9
Wind Wechselnd Wind aus Ost-Südost
Sonnenaufgang 6:19 AM
Sonnenuntergang 5:25 PM
Mond Letztes Viertel

Heute wird es voraussichtlich wärmer als gestern. In der Nacht Schauer. tonight.

Druck 29.98 inch
Sichtweite 6.2 Meilen
Wolken
Taupunkt 41 °F
Feuchtigkeit 40%
Regen 0.00 inch
Schneehöhe Nicht verfügbar..
UV Nicht verfügbar..
Pollen Nicht verfügbar..
Luftqualität Nicht verfügbar..
Flu Activity Nicht verfügbar..
METAR YPKG 231630Z AUTO 11008KT 9999 // NCD 19/05 Q1015

More Conditions Fewer Conditions

Druck 29.98 inch
Sichtweite 6.2 Meilen
Wolken
Taupunkt 41 °F
Feuchtigkeit 40%
Regen 0.00 inch
Schneehöhe Nicht verfügbar..
UV Nicht verfügbar..
Pollen Nicht verfügbar..
Luftqualität Nicht verfügbar..
Flu Activity Nicht verfügbar..
METAR YPKG 231630Z AUTO 11008KT 9999 // NCD 19/05 Q1015

More Conditions Fewer Conditions

10-Day Weather Forecast

Almanac

Astronomie

Apr. 24, 2014 Aufgang Untergang
Genaue Zeit 06:19 WST 17:25 WST
Bürgerliche Dämmerung 05:54 WST 17:49 WST
Nautische Dämmerung 05:26 WST 18:18 WST
Astronomische Dämmerung 04:58 WST 18:46 WST
Mond 00:55 WST (4/24) 14:02 WST (4/24)
Länge des sichtbaren Lichts 11h 54m
Tageslänge
11h 05m
Tomorrow will be 1m 38s shorter.
Letztes Viertel, 34% of the Moon is Illuminated
Apr 23
Letztes Viertel
Apr 29
Neu
Mai 6
Erstes Viertel
Mai 14
Vollmond
Mai 21
Letztes Viertel

Gestrige Extrema

Country Highs Country Lows

Community

  • Stunning Sunrise
    Stunning Sunrise
  • spring flowers
    spring flowers
  • Earth Day Spectrum Ove' Blue
    Earth Day Spectrum Ove' Blue
  • BARN B&W
    BARN B&W
  • April Sunset
    April Sunset

WunderPhotos

Upload Photos

1,704,332 Fotos hochgeladen!

WunderBlogs® & News

Nearby

Schneehöhe

Not available.

küstennahe Wassertemperaturen

Ort Temperatur
Kein Stationsbericht

Erdbebenaktivität

Stadt Distance Mag. Time & Date
No recent earthquake activity has been reported nearby.
Minimum magnitude displayed is 2.5.

Wetterstationen in der Umgebung

Stationsstandort Temp. Taupunkt Feuchtigkeit Wind Precip. Höhe Aktualisiert Art
Goldfields, Boulder 66.7 °F 42 °F 41% Süd  mit  0.2 mph 0.00 inch / hr 1152 ft 12:55 AM WST Echtzeit
6432 boulder wa, Boulder 68.5 °F 46 °F 44% Ost  mit  7.6 mph 0.00 inch / hr 1171 ft 12:55 AM WST Echtzeit

Show More Stations Show Fewer Stations

What do you think?

We're not finished. Please let us know what you like, what you don't like, and what you are still missing.